sensor_id;sensor_type;location;lat;lon;timestamp;P1;durP1;ratioP1;P2;durP2;ratioP2
18125;SDS011;53956;52.442;13.284;2022-12-20T00:01:20;37.87;;;20.93;;
18125;SDS011;53956;52.442;13.284;2022-12-20T00:03:48;39.07;;;21.23;;
18125;SDS011;53956;52.442;13.284;2022-12-20T00:06:16;38.47;;;19.67;;
18125;SDS011;53956;52.442;13.284;2022-12-20T00:08:43;38.43;;;20.83;;
18125;SDS011;53956;52.442;13.284;2022-12-20T00:11:10;36.83;;;20.77;;
18125;SDS011;53956;52.442;13.284;2022-12-20T00:13:38;39.53;;;20.57;;
18125;SDS011;53956;52.442;13.284;2022-12-20T00:16:05;35.27;;;20.37;;
18125;SDS011;53956;52.442;13.284;2022-12-20T00:18:34;39.33;;;20.37;;
18125;SDS011;53956;52.442;13.284;2022-12-20T00:21:02;39.60;;;20.40;;
18125;SDS011;53956;52.442;13.284;2022-12-20T00:23:30;41.67;;;20.97;;
18125;SDS011;53956;52.442;13.284;2022-12-20T00:26:00;39.47;;;20.90;;
18125;SDS011;53956;52.442;13.284;2022-12-20T00:28:27;39.43;;;20.83;;
18125;SDS011;53956;52.442;13.284;2022-12-20T00:30:55;35.17;;;19.23;;
18125;SDS011;53956;52.442;13.284;2022-12-20T00:33:22;36.50;;;19.63;;
18125;SDS011;53956;52.442;13.284;2022-12-20T00:35:49;37.80;;;19.93;;
18125;SDS011;53956;52.442;13.284;2022-12-20T00:38:18;36.10;;;20.17;;
18125;SDS011;53956;52.442;13.284;2022-12-20T00:40:44;36.47;;;20.50;;
18125;SDS011;53956;52.442;13.284;2022-12-20T00:43:11;39.67;;;19.10;;
18125;SDS011;53956;52.442;13.284;2022-12-20T00:45:38;37.00;;;19.93;;
18125;SDS011;53956;52.442;13.284;2022-12-20T00:48:06;37.47;;;19.63;;
18125;SDS011;53956;52.442;13.284;2022-12-20T00:50:33;36.43;;;20.07;;
18125;SDS011;53956;52.442;13.284;2022-12-20T00:53:00;35.97;;;20.03;;
18125;SDS011;53956;52.442;13.284;2022-12-20T00:55:26;35.07;;;19.53;;
18125;SDS011;53956;52.442;13.284;2022-12-20T00:57:53;35.07;;;19.37;;
18125;SDS011;53956;52.442;13.284;2022-12-20T01:00:20;34.83;;;19.50;;
18125;SDS011;53956;52.442;13.284;2022-12-20T01:02:46;33.73;;;19.10;;
18125;SDS011;53956;52.442;13.284;2022-12-20T01:05:14;33.30;;;19.27;;
18125;SDS011;53956;52.442;13.284;2022-12-20T01:07:41;35.13;;;19.37;;
18125;SDS011;53956;52.442;13.284;2022-12-20T01:10:08;36.57;;;20.27;;
18125;SDS011;53956;52.442;13.284;2022-12-20T01:12:36;35.67;;;19.67;;
18125;SDS011;53956;52.442;13.284;2022-12-20T01:15:03;33.23;;;18.50;;
18125;SDS011;53956;52.442;13.284;2022-12-20T01:17:31;34.73;;;18.93;;
18125;SDS011;53956;52.442;13.284;2022-12-20T01:19:58;34.30;;;19.80;;
18125;SDS011;53956;52.442;13.284;2022-12-20T01:22:26;33.73;;;18.77;;
18125;SDS011;53956;52.442;13.284;2022-12-20T01:24:53;31.70;;;17.93;;
18125;SDS011;53956;52.442;13.284;2022-12-20T01:27:19;32.30;;;18.17;;
18125;SDS011;53956;52.442;13.284;2022-12-20T01:29:46;31.93;;;19.17;;
18125;SDS011;53956;52.442;13.284;2022-12-20T01:32:13;32.90;;;18.73;;
18125;SDS011;53956;52.442;13.284;2022-12-20T01:34:39;31.27;;;17.67;;
18125;SDS011;53956;52.442;13.284;2022-12-20T01:37:06;34.53;;;18.23;;
18125;SDS011;53956;52.442;13.284;2022-12-20T01:39:34;32.13;;;18.33;;
18125;SDS011;53956;52.442;13.284;2022-12-20T01:42:01;32.33;;;17.80;;
18125;SDS011;53956;52.442;13.284;2022-12-20T01:47:17;29.20;;;17.10;;
18125;SDS011;53956;52.442;13.284;2022-12-20T01:49:44;34.23;;;18.47;;
18125;SDS011;53956;52.442;13.284;2022-12-20T01:52:14;32.70;;;19.07;;
18125;SDS011;53956;52.442;13.284;2022-12-20T01:54:45;32.63;;;19.37;;
18125;SDS011;53956;52.442;13.284;2022-12-20T01:57:17;34.70;;;19.13;;
18125;SDS011;53956;52.442;13.284;2022-12-20T01:59:47;32.23;;;18.23;;
18125;SDS011;53956;52.442;13.284;2022-12-20T02:02:15;29.40;;;17.47;;
18125;SDS011;53956;52.442;13.284;2022-12-20T02:04:43;32.20;;;18.53;;
18125;SDS011;53956;52.442;13.284;2022-12-20T02:07:09;28.23;;;18.07;;
18125;SDS011;53956;52.442;13.284;2022-12-20T02:09:41;31.27;;;18.57;;
18125;SDS011;53956;52.442;13.284;2022-12-20T02:12:10;31.33;;;17.97;;
18125;SDS011;53956;52.442;13.284;2022-12-20T02:14:47;31.20;;;17.80;;
18125;SDS011;53956;52.442;13.284;2022-12-20T02:17:29;30.90;;;17.80;;
18125;SDS011;53956;52.442;13.284;2022-12-20T02:20:06;31.20;;;18.17;;
18125;SDS011;53956;52.442;13.284;2022-12-20T02:23:08;29.50;;;18.40;;
18125;SDS011;53956;52.442;13.284;2022-12-20T02:26:02;31.20;;;17.50;;
18125;SDS011;53956;52.442;13.284;2022-12-20T02:28:49;31.97;;;17.67;;
18125;SDS011;53956;52.442;13.284;2022-12-20T02:31:34;30.57;;;18.40;;
18125;SDS011;53956;52.442;13.284;2022-12-20T02:34:05;31.20;;;18.13;;
18125;SDS011;53956;52.442;13.284;2022-12-20T02:36:33;32.90;;;18.70;;
18125;SDS011;53956;52.442;13.284;2022-12-20T02:39:00;34.63;;;18.53;;
18125;SDS011;53956;52.442;13.284;2022-12-20T02:41:28;32.63;;;18.30;;
18125;SDS011;53956;52.442;13.284;2022-12-20T02:43:59;33.03;;;18.13;;
18125;SDS011;53956;52.442;13.284;2022-12-20T02:46:51;30.40;;;16.90;;
18125;SDS011;53956;52.442;13.284;2022-12-20T02:49:22;32.13;;;17.93;;
18125;SDS011;53956;52.442;13.284;2022-12-20T02:51:54;31.30;;;18.77;;
18125;SDS011;53956;52.442;13.284;2022-12-20T02:54:22;32.30;;;17.90;;
18125;SDS011;53956;52.442;13.284;2022-12-20T02:56:50;28.77;;;17.20;;
18125;SDS011;53956;52.442;13.284;2022-12-20T02:59:23;29.70;;;16.67;;
18125;SDS011;53956;52.442;13.284;2022-12-20T03:01:56;28.07;;;17.47;;
18125;SDS011;53956;52.442;13.284;2022-12-20T03:04:26;29.57;;;17.63;;
18125;SDS011;53956;52.442;13.284;2022-12-20T03:06:59;30.40;;;16.87;;
18125;SDS011;53956;52.442;13.284;2022-12-20T03:09:29;28.90;;;17.23;;
18125;SDS011;53956;52.442;13.284;2022-12-20T03:11:57;27.57;;;16.77;;
18125;SDS011;53956;52.442;13.284;2022-12-20T03:14:24;30.20;;;16.50;;
18125;SDS011;53956;52.442;13.284;2022-12-20T03:16:53;33.17;;;17.20;;
18125;SDS011;53956;52.442;13.284;2022-12-20T03:19:22;28.50;;;17.40;;
18125;SDS011;53956;52.442;13.284;2022-12-20T03:21:49;28.90;;;17.07;;
18125;SDS011;53956;52.442;13.284;2022-12-20T03:24:15;29.23;;;16.67;;
18125;SDS011;53956;52.442;13.284;2022-12-20T03:26:43;26.33;;;15.80;;
18125;SDS011;53956;52.442;13.284;2022-12-20T03:29:10;27.67;;;16.03;;
18125;SDS011;53956;52.442;13.284;2022-12-20T03:31:36;27.40;;;16.23;;
18125;SDS011;53956;52.442;13.284;2022-12-20T03:34:03;28.97;;;17.17;;
18125;SDS011;53956;52.442;13.284;2022-12-20T03:36:34;29.77;;;15.97;;
18125;SDS011;53956;52.442;13.284;2022-12-20T03:39:03;26.93;;;16.67;;
18125;SDS011;53956;52.442;13.284;2022-12-20T03:41:33;28.80;;;17.00;;
18125;SDS011;53956;52.442;13.284;2022-12-20T03:44:01;28.40;;;16.70;;
18125;SDS011;53956;52.442;13.284;2022-12-20T03:46:28;28.93;;;16.80;;
18125;SDS011;53956;52.442;13.284;2022-12-20T03:48:56;26.90;;;15.57;;
18125;SDS011;53956;52.442;13.284;2022-12-20T03:51:22;27.73;;;16.43;;
18125;SDS011;53956;52.442;13.284;2022-12-20T03:53:51;28.13;;;16.80;;
18125;SDS011;53956;52.442;13.284;2022-12-20T03:56:21;27.93;;;16.60;;
18125;SDS011;53956;52.442;13.284;2022-12-20T03:58:47;27.27;;;16.23;;
18125;SDS011;53956;52.442;13.284;2022-12-20T04:01:15;28.20;;;16.77;;
18125;SDS011;53956;52.442;13.284;2022-12-20T04:03:44;25.07;;;16.63;;
18125;SDS011;53956;52.442;13.284;2022-12-20T04:06:10;27.30;;;16.73;;
18125;SDS011;53956;52.442;13.284;2022-12-20T04:08:37;28.87;;;17.00;;
18125;SDS011;53956;52.442;13.284;2022-12-20T04:11:05;27.37;;;16.77;;
18125;SDS011;53956;52.442;13.284;2022-12-20T04:14:07;27.00;;;16.63;;
18125;SDS011;53956;52.442;13.284;2022-12-20T04:16:34;27.53;;;16.50;;
18125;SDS011;53956;52.442;13.284;2022-12-20T04:19:01;25.80;;;15.73;;
18125;SDS011;53956;52.442;13.284;2022-12-20T04:21:33;28.13;;;16.03;;
18125;SDS011;53956;52.442;13.284;2022-12-20T04:24:02;29.83;;;16.60;;
18125;SDS011;53956;52.442;13.284;2022-12-20T04:26:40;28.13;;;16.47;;
18125;SDS011;53956;52.442;13.284;2022-12-20T04:29:07;27.90;;;16.20;;
18125;SDS011;53956;52.442;13.284;2022-12-20T04:31:34;28.60;;;16.67;;
18125;SDS011;53956;52.442;13.284;2022-12-20T04:34:01;28.17;;;16.63;;
18125;SDS011;53956;52.442;13.284;2022-12-20T04:36:30;27.30;;;16.87;;
18125;SDS011;53956;52.442;13.284;2022-12-20T04:38:59;27.70;;;16.33;;
18125;SDS011;53956;52.442;13.284;2022-12-20T04:41:32;27.70;;;16.17;;
18125;SDS011;53956;52.442;13.284;2022-12-20T04:44:07;30.03;;;17.00;;
18125;SDS011;53956;52.442;13.284;2022-12-20T04:46:35;29.33;;;16.40;;
18125;SDS011;53956;52.442;13.284;2022-12-20T04:49:05;28.80;;;15.80;;
18125;SDS011;53956;52.442;13.284;2022-12-20T04:51:35;29.87;;;16.67;;
18125;SDS011;53956;52.442;13.284;2022-12-20T04:54:03;27.20;;;16.27;;
18125;SDS011;53956;52.442;13.284;2022-12-20T04:56:36;29.20;;;16.97;;
18125;SDS011;53956;52.442;13.284;2022-12-20T04:59:08;25.67;;;15.57;;
18125;SDS011;53956;52.442;13.284;2022-12-20T05:01:38;26.77;;;16.50;;
18125;SDS011;53956;52.442;13.284;2022-12-20T05:04:05;28.77;;;16.10;;
18125;SDS011;53956;52.442;13.284;2022-12-20T05:06:35;27.33;;;16.43;;
18125;SDS011;53956;52.442;13.284;2022-12-20T05:09:02;27.43;;;16.20;;
18125;SDS011;53956;52.442;13.284;2022-12-20T05:11:30;27.57;;;16.30;;
18125;SDS011;53956;52.442;13.284;2022-12-20T05:13:57;26.33;;;16.63;;
18125;SDS011;53956;52.442;13.284;2022-12-20T05:16:25;28.77;;;16.80;;
18125;SDS011;53956;52.442;13.284;2022-12-20T05:18:52;25.87;;;16.10;;
18125;SDS011;53956;52.442;13.284;2022-12-20T05:21:19;28.30;;;16.97;;
18125;SDS011;53956;52.442;13.284;2022-12-20T05:24:05;26.70;;;16.67;;
18125;SDS011;53956;52.442;13.284;2022-12-20T05:26:59;26.33;;;16.70;;
18125;SDS011;53956;52.442;13.284;2022-12-20T05:29:26;24.97;;;16.63;;
18125;SDS011;53956;52.442;13.284;2022-12-20T05:31:54;29.63;;;17.10;;
18125;SDS011;53956;52.442;13.284;2022-12-20T05:34:21;25.70;;;16.20;;
18125;SDS011;53956;52.442;13.284;2022-12-20T05:36:51;25.70;;;16.77;;
18125;SDS011;53956;52.442;13.284;2022-12-20T05:39:20;28.47;;;16.67;;
18125;SDS011;53956;52.442;13.284;2022-12-20T05:41:49;28.67;;;17.57;;
18125;SDS011;53956;52.442;13.284;2022-12-20T05:44:19;28.07;;;17.83;;
18125;SDS011;53956;52.442;13.284;2022-12-20T05:46:48;25.40;;;16.77;;
18125;SDS011;53956;52.442;13.284;2022-12-20T05:49:21;26.97;;;16.43;;
18125;SDS011;53956;52.442;13.284;2022-12-20T05:51:48;29.17;;;17.30;;
18125;SDS011;53956;52.442;13.284;2022-12-20T05:54:20;27.30;;;16.80;;
18125;SDS011;53956;52.442;13.284;2022-12-20T05:56:54;27.47;;;16.50;;
18125;SDS011;53956;52.442;13.284;2022-12-20T05:59:30;27.70;;;16.77;;
18125;SDS011;53956;52.442;13.284;2022-12-20T06:01:56;26.43;;;16.93;;
18125;SDS011;53956;52.442;13.284;2022-12-20T06:04:25;27.43;;;16.40;;
18125;SDS011;53956;52.442;13.284;2022-12-20T06:06:52;27.40;;;16.57;;
18125;SDS011;53956;52.442;13.284;2022-12-20T06:09:19;26.47;;;17.27;;
18125;SDS011;53956;52.442;13.284;2022-12-20T06:11:58;27.50;;;16.73;;
18125;SDS011;53956;52.442;13.284;2022-12-20T06:14:26;26.83;;;17.27;;
18125;SDS011;53956;52.442;13.284;2022-12-20T06:16:54;28.57;;;17.00;;
18125;SDS011;53956;52.442;13.284;2022-12-20T06:19:21;30.07;;;17.53;;
18125;SDS011;53956;52.442;13.284;2022-12-20T06:21:53;26.37;;;16.97;;
18125;SDS011;53956;52.442;13.284;2022-12-20T06:24:28;25.50;;;16.93;;
18125;SDS011;53956;52.442;13.284;2022-12-20T06:26:55;31.63;;;17.03;;
18125;SDS011;53956;52.442;13.284;2022-12-20T06:29:24;28.17;;;17.23;;
18125;SDS011;53956;52.442;13.284;2022-12-20T06:32:01;31.07;;;18.00;;
18125;SDS011;53956;52.442;13.284;2022-12-20T06:34:29;26.23;;;16.83;;
18125;SDS011;53956;52.442;13.284;2022-12-20T06:36:58;31.10;;;18.60;;
18125;SDS011;53956;52.442;13.284;2022-12-20T06:39:27;28.03;;;17.60;;
18125;SDS011;53956;52.442;13.284;2022-12-20T06:42:00;30.77;;;17.57;;
18125;SDS011;53956;52.442;13.284;2022-12-20T06:44:27;32.27;;;18.17;;
18125;SDS011;53956;52.442;13.284;2022-12-20T06:46:53;27.70;;;17.57;;
18125;SDS011;53956;52.442;13.284;2022-12-20T06:49:20;31.63;;;17.30;;
18125;SDS011;53956;52.442;13.284;2022-12-20T06:51:48;30.67;;;17.97;;
18125;SDS011;53956;52.442;13.284;2022-12-20T06:54:20;31.17;;;17.83;;
18125;SDS011;53956;52.442;13.284;2022-12-20T06:56:47;26.50;;;17.10;;
18125;SDS011;53956;52.442;13.284;2022-12-20T06:59:14;28.43;;;17.07;;
18125;SDS011;53956;52.442;13.284;2022-12-20T07:01:41;30.23;;;18.13;;
18125;SDS011;53956;52.442;13.284;2022-12-20T07:04:08;28.30;;;17.87;;
18125;SDS011;53956;52.442;13.284;2022-12-20T07:06:35;29.07;;;17.40;;
18125;SDS011;53956;52.442;13.284;2022-12-20T07:09:02;31.70;;;19.00;;
18125;SDS011;53956;52.442;13.284;2022-12-20T07:11:30;34.47;;;18.80;;
18125;SDS011;53956;52.442;13.284;2022-12-20T07:13:57;28.23;;;17.47;;
18125;SDS011;53956;52.442;13.284;2022-12-20T07:16:24;29.83;;;18.67;;
18125;SDS011;53956;52.442;13.284;2022-12-20T07:18:51;31.17;;;17.57;;
18125;SDS011;53956;52.442;13.284;2022-12-20T07:21:19;27.97;;;17.63;;
18125;SDS011;53956;52.442;13.284;2022-12-20T07:23:47;31.37;;;18.63;;
18125;SDS011;53956;52.442;13.284;2022-12-20T07:26:13;31.30;;;18.80;;
18125;SDS011;53956;52.442;13.284;2022-12-20T07:28:42;32.30;;;18.60;;
18125;SDS011;53956;52.442;13.284;2022-12-20T07:31:09;32.70;;;19.83;;
18125;SDS011;53956;52.442;13.284;2022-12-20T07:33:36;28.30;;;17.97;;
18125;SDS011;53956;52.442;13.284;2022-12-20T07:36:03;31.57;;;18.93;;
18125;SDS011;53956;52.442;13.284;2022-12-20T07:38:31;29.93;;;18.47;;
18125;SDS011;53956;52.442;13.284;2022-12-20T07:40:59;31.07;;;19.00;;
18125;SDS011;53956;52.442;13.284;2022-12-20T07:43:26;31.63;;;18.87;;
18125;SDS011;53956;52.442;13.284;2022-12-20T07:45:55;32.40;;;18.90;;
18125;SDS011;53956;52.442;13.284;2022-12-20T07:48:22;32.17;;;19.90;;
18125;SDS011;53956;52.442;13.284;2022-12-20T07:50:49;33.03;;;19.63;;
18125;SDS011;53956;52.442;13.284;2022-12-20T07:53:17;36.00;;;20.93;;
18125;SDS011;53956;52.442;13.284;2022-12-20T07:55:44;34.47;;;18.93;;
18125;SDS011;53956;52.442;13.284;2022-12-20T07:58:12;31.93;;;19.67;;
18125;SDS011;53956;52.442;13.284;2022-12-20T08:00:41;34.87;;;20.37;;
18125;SDS011;53956;52.442;13.284;2022-12-20T08:03:12;36.43;;;20.97;;
18125;SDS011;53956;52.442;13.284;2022-12-20T08:05:43;34.50;;;19.80;;
18125;SDS011;53956;52.442;13.284;2022-12-20T08:08:12;35.00;;;20.50;;
18125;SDS011;53956;52.442;13.284;2022-12-20T08:10:41;37.00;;;20.83;;
18125;SDS011;53956;52.442;13.284;2022-12-20T08:13:09;34.73;;;20.90;;
18125;SDS011;53956;52.442;13.284;2022-12-20T08:15:35;34.40;;;20.33;;
18125;SDS011;53956;52.442;13.284;2022-12-20T08:18:02;36.73;;;22.03;;
18125;SDS011;53956;52.442;13.284;2022-12-20T08:20:31;35.47;;;21.17;;
18125;SDS011;53956;52.442;13.284;2022-12-20T08:22:58;35.73;;;21.20;;
18125;SDS011;53956;52.442;13.284;2022-12-20T08:25:25;37.60;;;21.27;;
18125;SDS011;53956;52.442;13.284;2022-12-20T08:27:52;34.77;;;21.27;;
18125;SDS011;53956;52.442;13.284;2022-12-20T08:30:18;36.10;;;21.33;;
18125;SDS011;53956;52.442;13.284;2022-12-20T08:32:45;37.43;;;21.73;;
18125;SDS011;53956;52.442;13.284;2022-12-20T08:35:12;38.17;;;21.03;;
18125;SDS011;53956;52.442;13.284;2022-12-20T08:37:40;36.63;;;21.17;;
18125;SDS011;53956;52.442;13.284;2022-12-20T08:40:07;38.10;;;21.80;;
18125;SDS011;53956;52.442;13.284;2022-12-20T08:42:34;45.57;;;22.10;;
18125;SDS011;53956;52.442;13.284;2022-12-20T08:45:02;43.53;;;22.50;;
18125;SDS011;53956;52.442;13.284;2022-12-20T08:47:29;38.97;;;21.33;;
18125;SDS011;53956;52.442;13.284;2022-12-20T08:49:56;40.67;;;21.03;;
18125;SDS011;53956;52.442;13.284;2022-12-20T08:52:22;36.90;;;21.60;;
18125;SDS011;53956;52.442;13.284;2022-12-20T08:54:50;39.80;;;21.97;;
18125;SDS011;53956;52.442;13.284;2022-12-20T08:57:17;38.80;;;21.53;;
18125;SDS011;53956;52.442;13.284;2022-12-20T08:59:44;33.77;;;20.30;;
18125;SDS011;53956;52.442;13.284;2022-12-20T09:02:10;34.00;;;20.73;;
18125;SDS011;53956;52.442;13.284;2022-12-20T09:04:37;34.87;;;20.57;;
18125;SDS011;53956;52.442;13.284;2022-12-20T09:07:04;37.90;;;21.73;;
18125;SDS011;53956;52.442;13.284;2022-12-20T09:09:30;36.27;;;21.07;;
18125;SDS011;53956;52.442;13.284;2022-12-20T09:11:58;38.27;;;21.23;;
18125;SDS011;53956;52.442;13.284;2022-12-20T09:14:25;38.27;;;21.47;;
18125;SDS011;53956;52.442;13.284;2022-12-20T09:16:52;36.47;;;21.30;;
18125;SDS011;53956;52.442;13.284;2022-12-20T09:19:18;34.80;;;21.20;;
18125;SDS011;53956;52.442;13.284;2022-12-20T09:21:45;35.57;;;21.00;;
18125;SDS011;53956;52.442;13.284;2022-12-20T09:24:12;36.40;;;21.00;;
18125;SDS011;53956;52.442;13.284;2022-12-20T09:26:39;33.90;;;19.93;;
18125;SDS011;53956;52.442;13.284;2022-12-20T09:29:07;34.27;;;20.73;;
18125;SDS011;53956;52.442;13.284;2022-12-20T09:31:34;34.10;;;20.57;;
18125;SDS011;53956;52.442;13.284;2022-12-20T09:34:01;34.27;;;20.07;;
18125;SDS011;53956;52.442;13.284;2022-12-20T09:36:28;34.07;;;19.80;;
18125;SDS011;53956;52.442;13.284;2022-12-20T09:38:56;31.63;;;18.93;;
18125;SDS011;53956;52.442;13.284;2022-12-20T09:41:24;35.97;;;19.47;;
18125;SDS011;53956;52.442;13.284;2022-12-20T09:43:54;33.93;;;19.23;;
18125;SDS011;53956;52.442;13.284;2022-12-20T09:46:23;31.47;;;18.73;;
18125;SDS011;53956;52.442;13.284;2022-12-20T09:48:52;34.47;;;19.53;;
18125;SDS011;53956;52.442;13.284;2022-12-20T09:51:32;33.63;;;20.47;;
18125;SDS011;53956;52.442;13.284;2022-12-20T09:54:15;32.73;;;19.60;;
18125;SDS011;53956;52.442;13.284;2022-12-20T09:56:55;32.33;;;18.47;;
18125;SDS011;53956;52.442;13.284;2022-12-20T09:59:27;33.23;;;19.50;;
18125;SDS011;53956;52.442;13.284;2022-12-20T10:01:55;32.13;;;18.63;;
18125;SDS011;53956;52.442;13.284;2022-12-20T10:04:23;32.63;;;18.67;;
18125;SDS011;53956;52.442;13.284;2022-12-20T10:06:59;33.43;;;18.53;;
18125;SDS011;53956;52.442;13.284;2022-12-20T10:09:50;30.13;;;18.53;;
18125;SDS011;53956;52.442;13.284;2022-12-20T10:12:29;31.53;;;18.23;;
18125;SDS011;53956;52.442;13.284;2022-12-20T10:15:12;28.73;;;17.73;;
18125;SDS011;53956;52.442;13.284;2022-12-20T10:17:49;29.27;;;18.27;;
18125;SDS011;53956;52.442;13.284;2022-12-20T10:20:45;31.83;;;18.87;;
18125;SDS011;53956;52.442;13.284;2022-12-20T10:23:24;31.30;;;18.63;;
18125;SDS011;53956;52.442;13.284;2022-12-20T10:25:55;29.90;;;18.67;;
18125;SDS011;53956;52.442;13.284;2022-12-20T10:28:24;29.90;;;17.63;;
18125;SDS011;53956;52.442;13.284;2022-12-20T10:30:56;33.47;;;17.87;;
18125;SDS011;53956;52.442;13.284;2022-12-20T10:33:26;27.73;;;17.90;;
18125;SDS011;53956;52.442;13.284;2022-12-20T10:35:54;29.53;;;17.97;;
18125;SDS011;53956;52.442;13.284;2022-12-20T10:38:21;34.67;;;18.00;;
18125;SDS011;53956;52.442;13.284;2022-12-20T10:40:58;28.83;;;17.03;;
18125;SDS011;53956;52.442;13.284;2022-12-20T10:43:26;29.33;;;17.83;;
18125;SDS011;53956;52.442;13.284;2022-12-20T10:46:03;26.60;;;16.97;;
18125;SDS011;53956;52.442;13.284;2022-12-20T10:48:34;29.17;;;17.50;;
18125;SDS011;53956;52.442;13.284;2022-12-20T10:51:02;31.30;;;17.67;;
18125;SDS011;53956;52.442;13.284;2022-12-20T10:53:48;28.83;;;16.70;;
18125;SDS011;53956;52.442;13.284;2022-12-20T10:56:17;25.70;;;16.27;;
18125;SDS011;53956;52.442;13.284;2022-12-20T10:58:53;28.07;;;16.37;;
18125;SDS011;53956;52.442;13.284;2022-12-20T11:01:23;29.10;;;16.60;;
18125;SDS011;53956;52.442;13.284;2022-12-20T11:03:55;25.07;;;16.43;;
18125;SDS011;53956;52.442;13.284;2022-12-20T11:06:25;28.00;;;16.47;;
18125;SDS011;53956;52.442;13.284;2022-12-20T11:09:04;27.77;;;16.17;;
18125;SDS011;53956;52.442;13.284;2022-12-20T11:11:55;26.13;;;16.23;;
18125;SDS011;53956;52.442;13.284;2022-12-20T11:14:24;26.37;;;16.57;;
18125;SDS011;53956;52.442;13.284;2022-12-20T11:16:52;23.27;;;15.10;;
18125;SDS011;53956;52.442;13.284;2022-12-20T11:19:26;25.10;;;15.93;;
18125;SDS011;53956;52.442;13.284;2022-12-20T11:21:58;24.93;;;15.63;;
18125;SDS011;53956;52.442;13.284;2022-12-20T11:24:34;27.70;;;16.40;;
18125;SDS011;53956;52.442;13.284;2022-12-20T11:27:13;24.97;;;15.43;;
18125;SDS011;53956;52.442;13.284;2022-12-20T11:29:55;27.20;;;16.23;;
18125;SDS011;53956;52.442;13.284;2022-12-20T11:32:41;28.03;;;16.20;;
18125;SDS011;53956;52.442;13.284;2022-12-20T11:35:36;26.90;;;15.53;;
18125;SDS011;53956;52.442;13.284;2022-12-20T11:38:14;28.07;;;16.73;;
18125;SDS011;53956;52.442;13.284;2022-12-20T11:40:51;25.33;;;15.83;;
18125;SDS011;53956;52.442;13.284;2022-12-20T11:43:26;25.80;;;15.27;;
18125;SDS011;53956;52.442;13.284;2022-12-20T11:46:04;27.20;;;15.87;;
18125;SDS011;53956;52.442;13.284;2022-12-20T11:48:52;24.27;;;15.17;;
18125;SDS011;53956;52.442;13.284;2022-12-20T11:51:33;24.33;;;14.63;;
18125;SDS011;53956;52.442;13.284;2022-12-20T11:54:06;23.57;;;14.40;;
18125;SDS011;53956;52.442;13.284;2022-12-20T11:56:39;24.20;;;15.03;;
18125;SDS011;53956;52.442;13.284;2022-12-20T11:59:10;25.67;;;16.03;;
18125;SDS011;53956;52.442;13.284;2022-12-20T12:01:43;26.03;;;15.83;;
18125;SDS011;53956;52.442;13.284;2022-12-20T12:04:13;30.50;;;15.70;;
18125;SDS011;53956;52.442;13.284;2022-12-20T12:06:45;24.47;;;15.27;;
18125;SDS011;53956;52.442;13.284;2022-12-20T12:09:20;25.47;;;15.83;;
18125;SDS011;53956;52.442;13.284;2022-12-20T12:11:54;25.23;;;15.20;;
18125;SDS011;53956;52.442;13.284;2022-12-20T12:14:28;23.50;;;14.87;;
18125;SDS011;53956;52.442;13.284;2022-12-20T12:17:03;26.13;;;15.80;;
18125;SDS011;53956;52.442;13.284;2022-12-20T12:19:35;25.27;;;14.53;;
18125;SDS011;53956;52.442;13.284;2022-12-20T12:22:08;25.07;;;14.97;;
18125;SDS011;53956;52.442;13.284;2022-12-20T12:24:41;26.47;;;14.90;;
18125;SDS011;53956;52.442;13.284;2022-12-20T12:27:13;26.03;;;15.53;;
18125;SDS011;53956;52.442;13.284;2022-12-20T12:29:46;24.10;;;14.97;;
18125;SDS011;53956;52.442;13.284;2022-12-20T12:32:15;25.07;;;14.43;;
18125;SDS011;53956;52.442;13.284;2022-12-20T12:34:50;28.73;;;15.20;;
18125;SDS011;53956;52.442;13.284;2022-12-20T12:37:34;21.33;;;14.23;;
18125;SDS011;53956;52.442;13.284;2022-12-20T12:40:24;21.87;;;14.07;;
18125;SDS011;53956;52.442;13.284;2022-12-20T12:43:15;24.67;;;14.50;;
18125;SDS011;53956;52.442;13.284;2022-12-20T12:46:18;22.53;;;13.50;;
18125;SDS011;53956;52.442;13.284;2022-12-20T12:48:53;20.70;;;14.17;;
18125;SDS011;53956;52.442;13.284;2022-12-20T12:51:25;24.07;;;14.40;;
18125;SDS011;53956;52.442;13.284;2022-12-20T12:54:02;22.93;;;14.80;;
18125;SDS011;53956;52.442;13.284;2022-12-20T12:56:41;24.03;;;14.77;;
18125;SDS011;53956;52.442;13.284;2022-12-20T12:59:21;23.03;;;14.13;;
18125;SDS011;53956;52.442;13.284;2022-12-20T13:01:50;24.67;;;14.53;;
18125;SDS011;53956;52.442;13.284;2022-12-20T13:04:22;23.20;;;14.40;;
18125;SDS011;53956;52.442;13.284;2022-12-20T13:06:56;23.23;;;14.77;;
18125;SDS011;53956;52.442;13.284;2022-12-20T13:09:38;26.40;;;14.87;;
18125;SDS011;53956;52.442;13.284;2022-12-20T13:18:20;24.93;;;15.87;;
18125;SDS011;53956;52.442;13.284;2022-12-20T13:27:24;26.67;;;15.60;;
18125;SDS011;53956;52.442;13.284;2022-12-20T13:29:57;26.40;;;14.70;;
18125;SDS011;53956;52.442;13.284;2022-12-20T13:32:52;26.90;;;16.17;;
18125;SDS011;53956;52.442;13.284;2022-12-20T13:41:35;22.43;;;14.40;;
18125;SDS011;53956;52.442;13.284;2022-12-20T13:49:58;23.97;;;14.77;;
18125;SDS011;53956;52.442;13.284;2022-12-20T13:52:27;22.97;;;15.10;;
18125;SDS011;53956;52.442;13.284;2022-12-20T13:54:57;25.83;;;15.83;;
18125;SDS011;53956;52.442;13.284;2022-12-20T13:57:31;26.47;;;15.67;;
18125;SDS011;53956;52.442;13.284;2022-12-20T14:00:11;26.27;;;14.87;;
18125;SDS011;53956;52.442;13.284;2022-12-20T14:02:41;24.70;;;15.13;;
18125;SDS011;53956;52.442;13.284;2022-12-20T14:05:13;23.67;;;15.47;;
18125;SDS011;53956;52.442;13.284;2022-12-20T14:07:45;24.50;;;14.93;;
18125;SDS011;53956;52.442;13.284;2022-12-20T14:10:22;25.77;;;14.97;;
18125;SDS011;53956;52.442;13.284;2022-12-20T14:12:51;24.80;;;15.40;;
18125;SDS011;53956;52.442;13.284;2022-12-20T14:15:20;24.30;;;14.43;;
18125;SDS011;53956;52.442;13.284;2022-12-20T14:17:48;25.30;;;15.53;;
18125;SDS011;53956;52.442;13.284;2022-12-20T14:20:16;24.80;;;15.20;;
18125;SDS011;53956;52.442;13.284;2022-12-20T14:22:48;24.13;;;15.30;;
18125;SDS011;53956;52.442;13.284;2022-12-20T14:25:26;25.53;;;15.93;;
18125;SDS011;53956;52.442;13.284;2022-12-20T14:27:59;25.17;;;15.10;;
18125;SDS011;53956;52.442;13.284;2022-12-20T14:30:28;24.60;;;15.53;;
18125;SDS011;53956;52.442;13.284;2022-12-20T14:32:57;28.37;;;15.83;;
18125;SDS011;53956;52.442;13.284;2022-12-20T14:35:25;26.53;;;15.27;;
18125;SDS011;53956;52.442;13.284;2022-12-20T14:37:57;25.20;;;15.10;;
18125;SDS011;53956;52.442;13.284;2022-12-20T14:40:26;24.80;;;15.47;;
18125;SDS011;53956;52.442;13.284;2022-12-20T14:42:54;24.97;;;14.87;;
18125;SDS011;53956;52.442;13.284;2022-12-20T14:45:23;28.10;;;16.23;;
18125;SDS011;53956;52.442;13.284;2022-12-20T14:47:55;29.87;;;17.27;;
18125;SDS011;53956;52.442;13.284;2022-12-20T14:50:27;26.83;;;16.03;;
18125;SDS011;53956;52.442;13.284;2022-12-20T14:52:56;28.07;;;16.20;;
18125;SDS011;53956;52.442;13.284;2022-12-20T14:55:24;27.60;;;15.63;;
18125;SDS011;53956;52.442;13.284;2022-12-20T14:57:54;28.80;;;16.30;;